createdAt,value
2023-02-22T00:01:47.498Z,100.00
2023-02-22T00:04:15.944Z,100.00
2023-02-22T00:06:42.612Z,100.00
2023-02-22T00:09:10.324Z,100.00
2023-02-22T00:11:38.473Z,100.00
2023-02-22T00:14:05.566Z,100.00
2023-02-22T00:16:32.215Z,100.00
2023-02-22T00:18:58.934Z,100.00
2023-02-22T00:21:25.542Z,100.00
2023-02-22T00:23:54.641Z,100.00
2023-02-22T00:26:23.327Z,100.00
2023-02-22T00:28:54.446Z,100.00
2023-02-22T00:31:21.804Z,100.00
2023-02-22T00:33:49.406Z,100.00
2023-02-22T00:36:17.370Z,100.00
2023-02-22T00:38:43.925Z,100.00
2023-02-22T00:41:11.753Z,100.00
2023-02-22T00:43:38.341Z,100.00
2023-02-22T00:46:05.210Z,100.00
2023-02-22T00:48:31.820Z,100.00
2023-02-22T00:50:58.425Z,100.00
2023-02-22T00:53:26.435Z,100.00
2023-02-22T00:55:53.895Z,100.00
2023-02-22T00:58:22.007Z,100.00
2023-02-22T01:00:50.105Z,100.00
2023-02-22T01:03:19.348Z,100.00
2023-02-22T01:05:46.619Z,100.00
2023-02-22T01:08:15.902Z,100.00
2023-02-22T01:10:43.401Z,100.00
2023-02-22T01:13:12.846Z,100.00
2023-02-22T01:15:43.068Z,100.00
2023-02-22T01:18:10.195Z,100.00
2023-02-22T01:20:37.100Z,100.00
2023-02-22T01:23:06.990Z,100.00
2023-02-22T01:25:35.273Z,100.00
2023-02-22T01:28:03.639Z,100.00
2023-02-22T01:30:35.886Z,100.00
2023-02-22T01:33:05.118Z,100.00
2023-02-22T01:35:35.368Z,100.00
2023-02-22T01:38:02.060Z,100.00
2023-02-22T01:40:34.453Z,100.00
2023-02-22T01:43:30.378Z,100.00
2023-02-22T01:46:04.496Z,100.00
2023-02-22T01:48:40.938Z,100.00
2023-02-22T01:51:20.832Z,100.00
2023-02-22T01:54:01.418Z,100.00
2023-02-22T01:56:30.757Z,100.00
2023-02-22T01:59:00.969Z,100.00
2023-02-22T02:01:29.384Z,100.00
2023-02-22T02:03:59.761Z,100.00
2023-02-22T02:06:29.242Z,100.00
2023-02-22T02:09:02.731Z,100.00
2023-02-22T02:11:29.593Z,100.00
2023-02-22T02:14:00.056Z,100.00
2023-02-22T02:16:44.490Z,100.00
2023-02-22T02:19:24.224Z,100.00
2023-02-22T02:22:07.939Z,100.00
2023-02-22T02:25:05.034Z,100.00
2023-02-22T02:27:45.374Z,100.00
2023-02-22T02:30:19.474Z,100.00
2023-02-22T02:32:53.841Z,100.00
2023-02-22T02:35:50.159Z,100.00
2023-02-22T02:38:31.844Z,100.00
2023-02-22T02:41:08.901Z,100.00
2023-02-22T02:43:59.216Z,100.00
2023-02-22T02:46:36.685Z,100.00
2023-02-22T02:49:11.170Z,100.00
2023-02-22T02:51:41.952Z,100.00
2023-02-22T02:54:11.366Z,100.00
2023-02-22T02:56:37.972Z,100.00
2023-02-22T02:59:25.240Z,100.00
2023-02-22T03:02:11.562Z,100.00
2023-02-22T03:04:42.488Z,100.00
2023-02-22T03:07:25.448Z,100.00
2023-02-22T03:10:25.469Z,100.00
2023-02-22T03:12:58.476Z,100.00
2023-02-22T03:15:49.584Z,100.00
2023-02-22T03:18:30.851Z,100.00
2023-02-22T03:21:19.477Z,100.00
2023-02-22T03:23:56.132Z,100.00
2023-02-22T03:26:31.296Z,100.00
2023-02-22T03:29:05.041Z,100.00
2023-02-22T03:31:37.756Z,100.00
2023-02-22T03:34:14.160Z,100.00
2023-02-22T03:36:49.942Z,100.00
2023-02-22T03:39:19.086Z,100.00
2023-02-22T03:41:51.404Z,100.00
2023-02-22T03:44:27.362Z,100.00
2023-02-22T03:46:57.747Z,100.00
2023-02-22T03:49:51.195Z,100.00
2023-02-22T03:52:19.856Z,100.00
2023-02-22T03:54:46.484Z,100.00
2023-02-22T03:57:25.425Z,100.00
2023-02-22T04:00:07.169Z,100.00
2023-02-22T04:02:40.497Z,100.00
2023-02-22T04:05:10.583Z,100.00
2023-02-22T04:07:37.401Z,100.00
2023-02-22T04:10:04.591Z,100.00
2023-02-22T04:12:31.211Z,100.00
2023-02-22T04:15:03.654Z,100.00
2023-02-22T04:17:30.375Z,100.00
2023-02-22T04:19:58.221Z,100.00
2023-02-22T04:22:27.701Z,100.00
2023-02-22T04:24:54.451Z,100.00
2023-02-22T04:27:21.411Z,100.00
2023-02-22T04:29:48.469Z,100.00
2023-02-22T04:32:16.077Z,100.00
2023-02-22T04:34:42.759Z,100.00
2023-02-22T04:37:10.433Z,100.00
2023-02-22T04:39:37.066Z,100.00
2023-02-22T04:42:04.998Z,100.00
2023-02-22T04:44:32.743Z,100.00
2023-02-22T04:47:00.430Z,100.00
2023-02-22T04:49:28.128Z,100.00
2023-02-22T04:51:56.962Z,100.00
2023-02-22T04:54:32.517Z,100.00
2023-02-22T04:56:59.127Z,100.00
2023-02-22T04:59:26.514Z,100.00
2023-02-22T05:01:56.729Z,100.00
2023-02-22T05:04:23.343Z,100.00
2023-02-22T05:06:50.295Z,100.00
2023-02-22T05:09:16.824Z,100.00
2023-02-22T05:11:43.455Z,100.00
2023-02-22T05:14:10.042Z,100.00
2023-02-22T05:16:36.881Z,100.00
2023-02-22T05:19:03.867Z,100.00
2023-02-22T05:21:30.486Z,100.00
2023-02-22T05:23:57.513Z,100.00
2023-02-22T05:26:24.239Z,100.00
2023-02-22T05:28:50.902Z,100.00
2023-02-22T05:31:18.053Z,100.00
2023-02-22T05:33:44.899Z,100.00
2023-02-22T05:36:11.511Z,100.00
2023-02-22T05:38:43.417Z,100.00
2023-02-22T05:41:12.117Z,100.00
2023-02-22T05:43:40.064Z,100.00
2023-02-22T05:46:06.979Z,100.00
2023-02-22T05:48:33.803Z,100.00
2023-02-22T05:51:00.404Z,100.00
2023-02-22T05:53:27.719Z,100.00
2023-02-22T05:55:54.560Z,100.00
2023-02-22T05:58:21.782Z,100.00
2023-02-22T06:00:48.423Z,100.00
2023-02-22T06:03:15.276Z,100.00
2023-02-22T06:05:42.813Z,100.00
2023-02-22T06:08:10.161Z,100.00
2023-02-22T06:10:36.881Z,100.00
2023-02-22T06:13:05.316Z,100.00
2023-02-22T06:15:32.240Z,100.00
2023-02-22T06:18:00.161Z,100.00
2023-02-22T06:20:28.886Z,100.00
2023-02-22T06:22:57.643Z,100.00
2023-02-22T06:25:27.155Z,100.00
2023-02-22T06:27:53.938Z,100.00
2023-02-22T06:30:22.642Z,100.00
2023-02-22T06:32:49.250Z,100.00
2023-02-22T06:35:16.833Z,100.00
2023-02-22T06:37:43.646Z,100.00
2023-02-22T06:40:11.254Z,100.00
2023-02-22T06:42:38.687Z,100.00
2023-02-22T06:45:05.544Z,100.00
2023-02-22T06:47:32.174Z,100.00
2023-02-22T06:50:03.778Z,100.00
2023-02-22T06:52:30.396Z,100.00
2023-02-22T06:54:56.951Z,100.00
2023-02-22T06:57:23.686Z,100.00
2023-02-22T06:59:50.333Z,100.00
2023-02-22T07:02:16.938Z,100.00
2023-02-22T07:04:45.309Z,100.00
2023-02-22T07:07:11.887Z,100.00
2023-02-22T07:09:38.418Z,100.00
2023-02-22T07:12:05.069Z,100.00
2023-02-22T07:14:31.696Z,100.00
2023-02-22T07:16:58.226Z,100.00
2023-02-22T07:19:24.713Z,100.00
2023-02-22T07:21:55.306Z,100.00
2023-02-22T07:24:21.894Z,100.00
2023-02-22T07:26:48.471Z,100.00
2023-02-22T07:29:14.973Z,100.00
2023-02-22T07:31:41.563Z,100.00
2023-02-22T07:34:08.158Z,100.00
2023-02-22T07:36:34.810Z,100.00
2023-02-22T07:39:01.488Z,100.00
2023-02-22T07:41:28.069Z,100.00
2023-02-22T07:43:54.636Z,100.00
2023-02-22T07:46:21.181Z,100.00
2023-02-22T07:48:47.752Z,100.00
2023-02-22T07:51:17.465Z,100.00
2023-02-22T07:53:46.806Z,100.00
2023-02-22T07:56:13.424Z,100.00
2023-02-22T07:58:40.059Z,100.00
2023-02-22T08:01:06.640Z,100.00
2023-02-22T08:03:36.603Z,100.00
2023-02-22T08:06:05.685Z,100.00
2023-02-22T08:08:32.291Z,100.00
2023-02-22T08:10:58.927Z,100.00
2023-02-22T08:13:25.530Z,100.00
2023-02-22T08:15:53.824Z,100.00
2023-02-22T08:18:21.639Z,100.00
2023-02-22T08:20:50.381Z,100.00
2023-02-22T08:23:18.427Z,100.00
2023-02-22T08:25:45.225Z,100.00
2023-02-22T08:28:15.023Z,100.00
2023-02-22T08:30:45.008Z,100.00
2023-02-22T08:33:15.818Z,100.00
2023-02-22T08:35:42.882Z,100.00
2023-02-22T08:38:17.454Z,100.00
2023-02-22T08:40:44.022Z,100.00
2023-02-22T08:43:10.555Z,100.00
2023-02-22T08:45:37.228Z,100.00
2023-02-22T08:48:04.065Z,100.00
2023-02-22T08:50:35.594Z,100.00
2023-02-22T08:53:04.668Z,100.00
2023-02-22T08:55:34.086Z,100.00
2023-02-22T08:58:03.069Z,100.00
2023-02-22T09:00:33.572Z,100.00
2023-02-22T09:03:01.689Z,100.00
2023-02-22T09:05:31.121Z,100.00
2023-02-22T09:07:58.015Z,100.00
2023-02-22T09:10:27.557Z,100.00
2023-02-22T09:12:58.127Z,100.00
2023-02-22T09:15:25.456Z,100.00
2023-02-22T09:17:53.123Z,100.00
2023-02-22T09:20:21.929Z,100.00
2023-02-22T09:22:49.949Z,100.00
2023-02-22T09:25:18.109Z,100.00
2023-02-22T09:27:48.318Z,100.00
2023-02-22T09:30:19.944Z,100.00
2023-02-22T09:32:46.652Z,100.00
2023-02-22T09:35:13.344Z,100.00
2023-02-22T09:37:39.991Z,100.00
2023-02-22T09:40:10.040Z,100.00
2023-02-22T09:42:53.986Z,100.00
2023-02-22T09:45:27.774Z,100.00
2023-02-22T09:48:08.187Z,100.00
2023-02-22T09:50:46.413Z,100.00
2023-02-22T09:53:21.786Z,100.00
2023-02-22T09:55:52.330Z,100.00
2023-02-22T09:58:24.113Z,100.00
2023-02-22T10:00:59.541Z,100.00
2023-02-22T10:03:51.177Z,100.00
2023-02-22T10:06:23.067Z,100.00
2023-02-22T10:08:56.282Z,100.00
2023-02-22T10:11:48.622Z,100.00
2023-02-22T10:14:33.936Z,100.00
2023-02-22T10:17:30.374Z,100.00
2023-02-22T10:20:21.778Z,100.00
2023-02-22T10:23:00.752Z,100.00
2023-02-22T10:25:34.920Z,100.00
2023-02-22T10:28:19.670Z,100.00
2023-02-22T10:31:02.119Z,100.00
2023-02-22T10:34:03.248Z,100.00
2023-02-22T10:36:29.891Z,100.00
2023-02-22T10:39:10.763Z,100.00
2023-02-22T10:41:44.751Z,100.00
2023-02-22T10:44:11.381Z,100.00
2023-02-22T10:46:40.630Z,100.00
2023-02-22T10:49:07.811Z,100.00
2023-02-22T10:51:35.270Z,100.00
2023-02-22T10:54:28.485Z,100.00
2023-02-22T10:56:56.450Z,100.00
2023-02-22T10:59:34.589Z,100.00
2023-02-22T11:02:08.493Z,100.00
2023-02-22T11:04:49.438Z,100.00
2023-02-22T11:07:22.547Z,100.00
2023-02-22T11:09:52.709Z,96.36
2023-02-22T11:12:33.620Z,94.81
2023-02-22T11:15:32.482Z,92.55
2023-02-22T11:18:01.772Z,91.16
2023-02-22T11:20:38.403Z,92.72
2023-02-22T11:23:05.861Z,91.77
2023-02-22T11:25:36.660Z,90.52
2023-02-22T11:28:08.063Z,88.72
2023-02-22T11:30:36.088Z,89.34
2023-02-22T11:33:26.021Z,88.18
2023-02-22T11:35:58.188Z,87.07
2023-02-22T11:38:30.722Z,82.33
2023-02-22T11:41:15.525Z,81.97
2023-02-22T11:43:47.909Z,81.82
2023-02-22T11:46:14.535Z,75.71
2023-02-22T11:48:54.431Z,77.69
2023-02-22T11:51:35.804Z,72.50
2023-02-22T11:54:25.716Z,68.94
2023-02-22T11:56:55.722Z,70.59
2023-02-22T11:59:22.666Z,69.97
2023-02-22T12:01:55.778Z,64.12
2023-02-22T12:04:54.132Z,60.52
2023-02-22T12:07:23.869Z,61.31
2023-02-22T12:10:09.040Z,57.63
2023-02-22T12:13:00.005Z,61.20
2023-02-22T12:15:27.152Z,61.42
2023-02-22T12:18:09.165Z,60.89
2023-02-22T12:20:57.304Z,59.00
2023-02-22T12:23:44.690Z,60.47
2023-02-22T12:26:16.990Z,58.91
2023-02-22T12:28:47.655Z,58.61
2023-02-22T12:31:25.220Z,61.62
2023-02-22T12:34:01.045Z,64.53
2023-02-22T12:36:36.403Z,68.20
2023-02-22T12:39:16.195Z,74.82
2023-02-22T12:41:48.224Z,79.89
2023-02-22T12:44:20.412Z,80.91
2023-02-22T12:46:55.121Z,81.76
2023-02-22T12:49:49.651Z,79.44
2023-02-22T12:52:41.550Z,73.24
2023-02-22T12:55:21.070Z,73.64
2023-02-22T12:57:57.171Z,74.91
2023-02-22T13:00:35.018Z,73.77
2023-02-22T13:03:26.437Z,75.40
2023-02-22T13:06:06.724Z,77.86
2023-02-22T13:08:51.566Z,76.76
2023-02-22T13:11:32.197Z,76.66
2023-02-22T13:14:30.059Z,81.08
2023-02-22T13:17:30.358Z,83.14
2023-02-22T13:20:08.693Z,84.86
2023-02-22T13:22:35.154Z,89.04
2023-02-22T13:25:19.574Z,88.80
2023-02-22T13:28:10.221Z,95.24
2023-02-22T13:30:41.580Z,95.55
2023-02-22T13:33:17.706Z,98.99
2023-02-22T13:35:55.419Z,100.00
2023-02-22T13:38:53.630Z,100.00
2023-02-22T13:41:39.384Z,100.00
2023-02-22T13:44:20.851Z,100.00
2023-02-22T13:46:53.366Z,100.00
2023-02-22T13:49:27.859Z,100.00
2023-02-22T13:51:58.963Z,100.00
2023-02-22T13:54:48.418Z,100.00
2023-02-22T13:57:39.327Z,100.00
2023-02-22T14:00:14.866Z,100.00
2023-02-22T14:03:15.170Z,100.00
2023-02-22T14:05:42.192Z,100.00
2023-02-22T14:08:18.710Z,100.00
2023-02-22T14:11:07.087Z,100.00
2023-02-22T14:13:55.566Z,100.00
2023-02-22T14:16:26.025Z,100.00
2023-02-22T14:19:06.410Z,100.00
2023-02-22T14:21:35.156Z,100.00
2023-02-22T14:24:14.025Z,100.00
2023-02-22T14:26:53.474Z,100.00
2023-02-22T14:29:21.666Z,100.00
2023-02-22T14:31:49.982Z,100.00
2023-02-22T14:34:18.803Z,100.00
2023-02-22T14:37:09.005Z,100.00
2023-02-22T14:39:51.240Z,100.00
2023-02-22T14:42:27.092Z,100.00
2023-02-22T14:45:05.934Z,100.00
2023-02-22T14:47:38.470Z,100.00
2023-02-22T14:50:13.287Z,100.00
2023-02-22T14:52:42.947Z,100.00
2023-02-22T14:55:22.582Z,100.00
2023-02-22T14:58:10.609Z,100.00
2023-02-22T15:00:46.061Z,100.00
2023-02-22T15:03:25.212Z,100.00
2023-02-22T15:05:51.809Z,100.00
2023-02-22T15:08:27.860Z,100.00
2023-02-22T15:10:54.868Z,100.00
2023-02-22T15:13:27.544Z,100.00
2023-02-22T15:16:07.868Z,100.00
2023-02-22T15:18:40.362Z,100.00
2023-02-22T15:21:13.496Z,100.00
2023-02-22T15:23:54.715Z,100.00
2023-02-22T15:26:52.021Z,100.00
2023-02-22T15:29:39.293Z,100.00
2023-02-22T15:32:29.152Z,100.00
2023-02-22T15:35:05.394Z,100.00
2023-02-22T15:37:32.505Z,100.00
2023-02-22T15:40:14.321Z,100.00
2023-02-22T15:43:02.242Z,100.00
2023-02-22T15:45:29.921Z,100.00
2023-02-22T15:47:58.520Z,100.00
2023-02-22T15:50:33.894Z,100.00
2023-02-22T15:53:07.732Z,100.00
2023-02-22T15:55:36.038Z,100.00
2023-02-22T15:58:22.248Z,100.00
2023-02-22T16:00:58.920Z,100.00
2023-02-22T16:03:28.681Z,100.00
2023-02-22T16:05:57.244Z,100.00
2023-02-22T16:08:29.298Z,100.00
2023-02-22T16:11:13.340Z,100.00
2023-02-22T16:13:42.067Z,100.00
2023-02-22T16:16:20.647Z,100.00
2023-02-22T16:18:47.661Z,100.00
2023-02-22T16:21:17.678Z,100.00
2023-02-22T16:23:55.989Z,100.00
2023-02-22T16:26:27.728Z,100.00
2023-02-22T16:29:05.002Z,100.00
2023-02-22T16:31:37.066Z,100.00
2023-02-22T16:34:06.524Z,100.00
2023-02-22T16:36:45.140Z,100.00
2023-02-22T16:39:35.885Z,100.00
2023-02-22T16:42:10.430Z,100.00
2023-02-22T16:44:37.739Z,100.00
2023-02-22T16:47:04.316Z,100.00
2023-02-22T16:49:30.877Z,100.00
2023-02-22T16:52:01.354Z,100.00
2023-02-22T16:54:36.456Z,100.00
2023-02-22T16:57:04.942Z,100.00
2023-02-22T16:59:36.350Z,100.00
2023-02-22T17:02:07.381Z,100.00
2023-02-22T17:04:36.529Z,100.00
2023-02-22T17:07:05.161Z,100.00
2023-02-22T17:09:32.754Z,100.00
2023-02-22T17:11:59.451Z,100.00
2023-02-22T17:14:31.268Z,100.00
2023-02-22T17:16:58.421Z,100.00
2023-02-22T17:19:25.241Z,100.00
2023-02-22T17:21:52.915Z,100.00
2023-02-22T17:24:23.447Z,100.00
2023-02-22T17:26:52.929Z,100.00
2023-02-22T17:29:24.279Z,100.00
2023-02-22T17:31:52.459Z,100.00
2023-02-22T17:34:19.396Z,100.00
2023-02-22T17:36:46.473Z,100.00
2023-02-22T17:39:13.485Z,100.00
2023-02-22T17:41:40.906Z,100.00
2023-02-22T17:44:07.942Z,100.00
2023-02-22T17:46:36.504Z,100.00
2023-02-22T17:49:03.353Z,100.00
2023-02-22T17:51:30.100Z,100.00
2023-02-22T17:53:56.922Z,100.00
2023-02-22T17:56:23.583Z,100.00
2023-02-22T17:58:53.951Z,100.00
2023-02-22T18:01:32.244Z,100.00
2023-02-22T18:04:01.217Z,100.00
2023-02-22T18:06:30.072Z,100.00
2023-02-22T18:08:59.450Z,100.00
2023-02-22T18:11:28.402Z,100.00
2023-02-22T18:13:57.158Z,100.00
2023-02-22T18:16:27.738Z,100.00
2023-02-22T18:18:56.847Z,100.00
2023-02-22T18:21:23.927Z,100.00
2023-02-22T18:23:50.508Z,100.00
2023-02-22T18:26:19.181Z,100.00
2023-02-22T18:28:48.469Z,100.00
2023-02-22T18:31:17.017Z,100.00
2023-02-22T18:33:44.902Z,100.00
2023-02-22T18:36:13.139Z,100.00
2023-02-22T18:38:44.097Z,100.00
2023-02-22T18:41:13.214Z,100.00
2023-02-22T18:43:40.259Z,100.00
2023-02-22T18:46:16.075Z,100.00
2023-02-22T18:48:43.710Z,100.00
2023-02-22T18:51:14.171Z,100.00
2023-02-22T18:53:46.963Z,100.00
2023-02-22T18:56:17.223Z,100.00
2023-02-22T18:58:44.164Z,100.00
2023-02-22T19:01:17.842Z,100.00
2023-02-22T19:03:47.108Z,100.00
2023-02-22T19:06:14.937Z,100.00
2023-02-22T19:08:42.679Z,100.00
2023-02-22T19:11:17.768Z,100.00
2023-02-22T19:13:49.371Z,100.00
2023-02-22T19:16:21.859Z,100.00
2023-02-22T19:18:49.708Z,100.00
2023-02-22T19:21:16.604Z,100.00
2023-02-22T19:23:47.566Z,100.00
2023-02-22T19:26:24.011Z,100.00
2023-02-22T19:28:53.481Z,100.00
2023-02-22T19:31:21.819Z,100.00
2023-02-22T19:33:52.679Z,100.00
2023-02-22T19:36:22.936Z,100.00
2023-02-22T19:38:49.763Z,100.00
2023-02-22T19:41:20.352Z,100.00
2023-02-22T19:43:48.496Z,100.00
2023-02-22T19:46:17.783Z,100.00
2023-02-22T19:48:50.999Z,100.00
2023-02-22T19:51:19.542Z,100.00
2023-02-22T19:53:47.116Z,100.00
2023-02-22T19:56:42.722Z,100.00
2023-02-22T19:59:13.639Z,100.00
2023-02-22T20:01:44.026Z,100.00
2023-02-22T20:04:17.689Z,100.00
2023-02-22T20:07:20.436Z,100.00
2023-02-22T20:09:53.701Z,100.00
2023-02-22T20:12:21.386Z,100.00
2023-02-22T20:14:47.990Z,100.00
2023-02-22T20:17:14.489Z,100.00
2023-02-22T20:19:42.440Z,100.00
2023-02-22T20:22:12.326Z,100.00
2023-02-22T20:24:39.010Z,100.00
2023-02-22T20:27:05.634Z,100.00
2023-02-22T20:29:32.387Z,100.00
2023-02-22T20:32:00.864Z,100.00
2023-02-22T20:34:32.438Z,100.00
2023-02-22T20:37:00.295Z,100.00
2023-02-22T20:39:27.180Z,100.00
2023-02-22T20:41:54.538Z,100.00
2023-02-22T20:44:21.810Z,100.00
2023-02-22T20:46:49.422Z,100.00
2023-02-22T20:49:18.962Z,100.00
2023-02-22T20:51:46.555Z,100.00
2023-02-22T20:54:13.529Z,100.00
2023-02-22T20:56:41.827Z,100.00
2023-02-22T20:59:11.891Z,100.00
2023-02-22T21:01:38.517Z,100.00
2023-02-22T21:04:07.289Z,100.00
2023-02-22T21:06:36.245Z,100.00
2023-02-22T21:09:07.193Z,100.00
2023-02-22T21:11:33.863Z,100.00
2023-02-22T21:14:01.931Z,100.00
2023-02-22T21:16:35.355Z,100.00
2023-02-22T21:19:04.745Z,100.00
2023-02-22T21:21:31.810Z,100.00
2023-02-22T21:24:02.825Z,100.00
2023-02-22T21:26:33.800Z,100.00
2023-02-22T21:29:06.042Z,100.00
2023-02-22T21:31:34.260Z,100.00
2023-02-22T21:34:01.137Z,100.00
2023-02-22T21:36:28.708Z,100.00
2023-02-22T21:39:00.622Z,100.00
2023-02-22T21:41:29.450Z,100.00
2023-02-22T21:43:57.699Z,100.00
2023-02-22T21:46:25.489Z,100.00
2023-02-22T21:48:52.103Z,100.00
2023-02-22T21:51:32.507Z,100.00
2023-02-22T21:54:08.123Z,100.00
2023-02-22T21:56:39.719Z,100.00
2023-02-22T21:59:11.598Z,100.00
2023-02-22T22:01:47.773Z,100.00
2023-02-22T22:04:18.899Z,100.00
2023-02-22T22:06:47.755Z,100.00
2023-02-22T22:09:21.896Z,100.00
2023-02-22T22:11:50.982Z,100.00
2023-02-22T22:14:19.376Z,100.00
2023-02-22T22:16:48.064Z,100.00
2023-02-22T22:19:15.016Z,100.00
2023-02-22T22:21:41.578Z,100.00
2023-02-22T22:24:10.359Z,100.00
2023-02-22T22:26:37.974Z,100.00
2023-02-22T22:29:05.111Z,100.00
2023-02-22T22:31:32.326Z,100.00
2023-02-22T22:33:59.133Z,100.00
2023-02-22T22:36:27.320Z,100.00
2023-02-22T22:38:57.526Z,100.00
2023-02-22T22:41:27.854Z,100.00
2023-02-22T22:43:54.403Z,100.00
2023-02-22T22:46:22.464Z,100.00
2023-02-22T22:48:49.055Z,100.00
2023-02-22T22:51:21.087Z,100.00
2023-02-22T22:53:49.771Z,100.00
2023-02-22T22:56:26.197Z,100.00
2023-02-22T22:58:58.092Z,100.00
2023-02-22T23:01:27.865Z,100.00
2023-02-22T23:04:01.793Z,100.00
2023-02-22T23:06:34.269Z,100.00
2023-02-22T23:09:11.479Z,100.00
2023-02-22T23:11:44.431Z,100.00
2023-02-22T23:14:19.353Z,100.00
2023-02-22T23:16:50.522Z,100.00
2023-02-22T23:19:19.122Z,100.00
2023-02-22T23:21:50.142Z,100.00
2023-02-22T23:24:21.032Z,100.00
2023-02-22T23:26:48.869Z,100.00
2023-02-22T23:29:20.656Z,100.00
2023-02-22T23:31:48.829Z,100.00
2023-02-22T23:34:21.075Z,100.00
2023-02-22T23:36:48.418Z,100.00
2023-02-22T23:39:18.132Z,100.00
2023-02-22T23:41:44.789Z,100.00
2023-02-22T23:44:17.080Z,100.00
2023-02-22T23:46:47.553Z,100.00
2023-02-22T23:49:19.911Z,100.00
2023-02-22T23:51:47.677Z,100.00
2023-02-22T23:54:19.294Z,100.00
2023-02-22T23:57:05.267Z,100.00
2023-02-22T23:59:33.269Z,100.00
